PWSweather.com
Personal Weather Stations
Station Observations
ABQWX
Albuquerque, NM 87110

Albuquerque, NM 87110

Lat: 35.1305, Lon: -106.58571

Elevation: 5210

Station Type: LaCrosse

http://www.albuquerqueweather.info/

High Low Average
Temperature 95.0°F35.0°F 63.0°F17.2°F 76.0°F24.4°F
Dew Point 60.2°F15.7°F 46.1°F7.8°F 54.4°F12.4°F
Winds 7.6 mph ESE12.2 mph ESE 0.1 mph 0.2 mph 3.2 mph 5.1 mph
Wind Gusts 13.9 mph22.4 mph -- 6.4 mph10.3 mph
Humidity 77% 20% 51%
Pressure 30.13 in1020.30 in 30.02 in1016.60 in -
Precipitation 0.00 in0.00 in - -
Hour Temp Dew Point Humidity Winds Wind Gusts Pressure Precip Precip Rate Daily Precip Total
12:00 AM 70.2°F21.2°C 56.1°F13.4°C 61% 1.0 mph SSW1.6 kmh SSW 2.5 mph4.0 kmh 30.04 in1017.3 mb 0.00 in0.0 mm 0.00 in/hr0.0 mm/hr 0.00 in0.0 mm
01:00 AM 68.5°F20.3°C 55.9°F13.3°C 64% 0.1 mph 0.2 kmh -- 30.06 in1017.9 mb 0.00 in0.0 mm 0.00 in/hr0.0 mm/hr 0.00 in0.0 mm
02:00 AM 67.3°F19.6°C 55.5°F13.1°C 66% 0.2 mph WSW0.3 kmh WSW 0.7 mph1.1 kmh 30.06 in1017.9 mb 0.00 in0.0 mm 0.00 in/hr0.0 mm/hr 0.00 in0.0 mm
03:00 AM 65.8°F18.8°C 55.4°F13.0°C 69% 0.1 mph NNE0.2 kmh NNE 0.7 mph1.1 kmh 30.06 in1017.9 mb 0.00 in0.0 mm 0.00 in/hr0.0 mm/hr 0.00 in0.0 mm
04:00 AM 65.3°F18.5°C 55.7°F13.2°C 71% 0.4 mph NW0.6 kmh NW 1.1 mph1.8 kmh 30.06 in1017.9 mb 0.00 in0.0 mm 0.00 in/hr0.0 mm/hr 0.00 in0.0 mm
05:00 AM 64.9°F18.3°C 55.3°F12.9°C 71% 0.6 mph NW1.0 kmh NW 1.1 mph1.8 kmh 30.06 in1017.9 mb 0.00 in0.0 mm 0.00 in/hr0.0 mm/hr 0.00 in0.0 mm
06:00 AM 64.2°F17.9°C 55.8°F13.2°C 74% 1.5 mph N2.4 kmh N 4.5 mph7.2 kmh 30.07 in1018.3 mb 0.00 in0.0 mm 0.00 in/hr0.0 mm/hr 0.00 in0.0 mm
07:00 AM 63.0°F17.2°C 55.3°F12.9°C 76% 1.8 mph N2.9 kmh N 3.4 mph5.5 kmh 30.10 in1019.3 mb 0.00 in0.0 mm 0.00 in/hr0.0 mm/hr 0.00 in0.0 mm
08:00 AM 63.7°F17.6°C 56.3°F13.5°C 77% 4.3 mph NW6.9 kmh NW 6.9 mph11.1 kmh 30.11 in1019.6 mb 0.00 in0.0 mm 0.00 in/hr0.0 mm/hr 0.00 in0.0 mm
09:00 AM 66.7°F19.3°C 57.4°F14.1°C 72% 4.0 mph NW6.4 kmh NW 6.3 mph10.1 kmh 30.11 in1019.6 mb 0.00 in0.0 mm 0.00 in/hr0.0 mm/hr 0.00 in0.0 mm
10:00 AM 71.8°F22.1°C 59.4°F15.2°C 65% 3.6 mph N5.8 kmh N 6.9 mph11.1 kmh 30.12 in1020.0 mb 0.00 in0.0 mm 0.00 in/hr0.0 mm/hr 0.00 in0.0 mm
11:00 AM 77.4°F25.2°C 58.9°F14.9°C 53% 3.0 mph WNW4.8 kmh WNW 4.7 mph7.6 kmh 30.11 in1019.6 mb 0.00 in0.0 mm 0.00 in/hr0.0 mm/hr 0.00 in0.0 mm
12:00 PM 81.1°F27.3°C 60.2°F15.7°C 49% 2.4 mph WNW3.9 kmh WNW 5.1 mph8.2 kmh 30.09 in1019.0 mb 0.00 in0.0 mm 0.00 in/hr0.0 mm/hr 0.00 in0.0 mm
01:00 PM 83.7°F28.7°C 56.8°F13.8°C 40% 3.6 mph WNW5.8 kmh WNW 7.2 mph11.6 kmh 30.08 in1018.6 mb 0.00 in0.0 mm 0.00 in/hr0.0 mm/hr 0.00 in0.0 mm
02:00 PM 88.5°F31.4°C 58.2°F14.6°C 36% 3.6 mph SW5.8 kmh SW 6.0 mph9.7 kmh 30.05 in1017.6 mb 0.00 in0.0 mm 0.00 in/hr0.0 mm/hr 0.00 in0.0 mm
03:00 PM 91.4°F33.0°C 52.7°F11.5°C 27% 4.5 mph WSW7.2 kmh WSW 9.6 mph15.4 kmh 30.02 in1016.6 mb 0.00 in0.0 mm 0.00 in/hr0.0 mm/hr 0.00 in0.0 mm
04:00 PM 95.0°F35.0°C 47.6°F8.7°C 20% 5.2 mph ESE8.4 kmh ESE 11.4 mph18.3 kmh 30.02 in1016.6 mb 0.00 in0.0 mm 0.00 in/hr0.0 mm/hr 0.00 in0.0 mm
05:00 PM 91.6°F33.1°C 46.1°F7.8°C 21% 6.8 mph ESE10.9 kmh ESE 11.6 mph18.7 kmh 30.03 in1016.9 mb 0.00 in0.0 mm 0.00 in/hr0.0 mm/hr 0.00 in0.0 mm
06:00 PM 88.3°F31.3°C 47.0°F8.3°C 24% 7.6 mph ESE12.2 kmh ESE 11.9 mph19.2 kmh 30.03 in1016.9 mb 0.00 in0.0 mm 0.00 in/hr0.0 mm/hr 0.00 in0.0 mm
07:00 PM 83.8°F28.8°C 48.2°F9.0°C 29% 4.5 mph ESE7.2 kmh ESE 8.9 mph14.3 kmh 30.06 in1017.9 mb 0.00 in0.0 mm 0.00 in/hr0.0 mm/hr 0.00 in0.0 mm
08:00 PM 80.8°F27.1°C 50.6°F10.3°C 35% 6.1 mph E9.8 kmh E 13.9 mph22.4 kmh 30.07 in1018.3 mb 0.00 in0.0 mm 0.00 in/hr0.0 mm/hr 0.00 in0.0 mm
09:00 PM 78.4°F25.8°C 52.8°F11.6°C 41% 4.3 mph ESE6.9 kmh ESE 13.2 mph21.2 kmh 30.10 in1019.3 mb 0.00 in0.0 mm 0.00 in/hr0.0 mm/hr 0.00 in0.0 mm
10:00 PM 76.6°F24.8°C 54.3°F12.4°C 46% 4.5 mph SSE7.2 kmh SSE 9.4 mph15.1 kmh 30.13 in1020.3 mb 0.00 in0.0 mm 0.00 in/hr0.0 mm/hr 0.00 in0.0 mm
11:00 PM 75.2°F24.0°C 53.6°F12.0°C 47% 2.7 mph SSE4.3 kmh SSE 6.3 mph10.1 kmh 30.13 in1020.3 mb 0.00 in0.0 mm 0.00 in/hr0.0 mm/hr 0.00 in0.0 mm